Time;durP1;ratioP1;P1;durP2;ratioP2;P2;SDS_P1;SDS_P2;PMS_P1;PMS_P2;Temp;Humidity;BMP_temperature;BMP_pressure;BME280_temperature;BME280_humidity;BME280_pressure;Samples;Min_cycle;Max_cycle;Signal;HPM_P1;HPM_P2
2022/12/06 00:01:25;;;;;;;36.50;31.83;;;;;;;;;;5031371;28;20033;-64
2022/12/06 00:03:53;;;;;;;35.47;31.73;;;;;;;;;;5031101;28;20059;-63
2022/12/06 00:06:19;;;;;;;36.90;33.07;;;;;;;;;;5032382;28;20397;-63
2022/12/06 00:08:46;;;;;;;37.38;32.08;;;;;;;;;;5031848;28;20052;-63
2022/12/06 00:11:12;;;;;;;34.15;30.60;;;;;;;;;;5032279;28;20021;-63
2022/12/06 00:13:39;;;;;;;37.40;33.08;;;;;;;;;;5030959;28;20481;-64
2022/12/06 00:16:09;;;;;;;35.70;31.98;;;;;;;;;;5032360;28;20459;-64
2022/12/06 00:18:36;;;;;;;35.45;31.67;;;;;;;;;;5032432;28;20481;-64
2022/12/06 00:21:06;;;;;;;35.70;31.60;;;;;;;;;;5030995;28;20500;-64
2022/12/06 00:23:34;;;;;;;34.90;31.15;;;;;;;;;;5032295;28;20029;-63
2022/12/06 00:26:00;;;;;;;37.63;31.60;;;;;;;;;;5032393;28;20021;-63
2022/12/06 00:28:26;;;;;;;33.88;30.23;;;;;;;;;;5032311;28;20070;-63
2022/12/06 00:30:56;;;;;;;36.10;32.30;;;;;;;;;;5032184;28;20071;-63
2022/12/06 00:33:22;;;;;;;35.85;32.08;;;;;;;;;;5030730;28;20034;-62
2022/12/06 00:35:54;;;;;;;35.25;31.65;;;;;;;;;;5031894;28;20036;-63
2022/12/06 00:38:20;;;;;;;34.65;31.17;;;;;;;;;;5030883;28;20103;-63
2022/12/06 00:40:46;;;;;;;34.45;30.77;;;;;;;;;;5031969;28;20053;-63
2022/12/06 00:43:12;;;;;;;36.72;32.42;;;;;;;;;;5031747;28;20093;-63
2022/12/06 00:45:38;;;;;;;35.58;32.08;;;;;;;;;;5031888;28;20096;-63
2022/12/06 00:48:04;;;;;;;34.63;31.00;;;;;;;;;;5032126;28;20022;-63
2022/12/06 00:50:30;;;;;;;34.90;31.10;;;;;;;;;;5031928;28;20022;-63
2022/12/06 00:52:56;;;;;;;34.45;30.88;;;;;;;;;;5031966;28;20028;-63
2022/12/06 00:55:22;;;;;;;34.88;31.35;;;;;;;;;;5031438;28;20481;-63
2022/12/06 00:57:48;;;;;;;33.72;28.73;;;;;;;;;;5030546;28;20021;-64
2022/12/06 01:00:14;;;;;;;34.95;31.25;;;;;;;;;;5031898;28;20205;-64
2022/12/06 01:02:40;;;;;;;34.08;29.70;;;;;;;;;;5030457;28;20025;-64
2022/12/06 01:05:06;;;;;;;33.50;30.00;;;;;;;;;;5030232;28;20577;-64
2022/12/06 01:07:32;;;;;;;33.33;29.85;;;;;;;;;;5031651;28;20095;-64
2022/12/06 01:09:58;;;;;;;34.72;31.20;;;;;;;;;;5031717;28;20021;-64
2022/12/06 01:12:24;;;;;;;33.28;29.70;;;;;;;;;;5031744;28;20026;-63
2022/12/06 01:14:50;;;;;;;33.15;29.65;;;;;;;;;;5031292;28;20110;-63
2022/12/06 01:17:16;;;;;;;32.72;28.73;;;;;;;;;;5030328;28;20117;-63
2022/12/06 01:19:42;;;;;;;33.25;29.77;;;;;;;;;;5031700;28;20080;-63
2022/12/06 01:22:08;;;;;;;33.97;30.38;;;;;;;;;;5035245;28;20025;-63
2022/12/06 01:24:34;;;;;;;32.67;29.30;;;;;;;;;;5035157;28;20508;-63
2022/12/06 01:27:00;;;;;;;31.88;28.48;;;;;;;;;;5034353;28;20041;-64
2022/12/06 01:29:26;;;;;;;32.85;28.88;;;;;;;;;;5035645;28;20022;-63
2022/12/06 01:31:52;;;;;;;32.60;29.13;;;;;;;;;;5034380;28;20024;-64
2022/12/06 01:34:18;;;;;;;32.20;28.70;;;;;;;;;;5035042;28;20025;-63
2022/12/06 01:36:44;;;;;;;31.70;28.45;;;;;;;;;;5035501;28;20116;-63
2022/12/06 01:39:11;;;;;;;32.00;28.63;;;;;;;;;;5035321;28;20493;-64
2022/12/06 01:41:38;;;;;;;31.83;27.52;;;;;;;;;;5035463;28;20379;-64
2022/12/06 01:44:04;;;;;;;32.70;29.15;;;;;;;;;;5035162;28;20033;-64
2022/12/06 01:46:33;;;;;;;31.48;28.08;;;;;;;;;;5035378;28;20055;-64
2022/12/06 01:48:59;;;;;;;;;;;;;;;;;;5035647;28;20026;-63
2022/12/06 01:51:25;;;;;;;33.55;29.70;;;;;;;;;;5035137;28;19962;-63
2022/12/06 01:53:52;;;;;;;31.48;28.25;;;;;;;;;;5033511;28;20087;-64
2022/12/06 01:56:18;;;;;;;35.13;30.80;;;;;;;;;;5033224;28;20108;-63
2022/12/06 01:58:45;;;;;;;34.70;29.27;;;;;;;;;;5034978;28;20026;-63
2022/12/06 02:01:11;;;;;;;35.42;30.45;;;;;;;;;;5035342;28;20080;-63
2022/12/06 02:03:37;;;;;;;33.80;30.23;;;;;;;;;;5034868;28;20119;-63
2022/12/06 02:06:04;;;;;;;38.17;31.42;;;;;;;;;;5032126;28;20026;-63
2022/12/06 02:08:31;;;;;;;34.85;29.38;;;;;;;;;;5034777;28;20022;-64
2022/12/06 02:10:58;;;;;;;39.00;30.73;;;;;;;;;;5034652;28;20025;-63
2022/12/06 02:13:24;;;;;;;35.30;29.45;;;;;;;;;;5034574;28;20053;-63
2022/12/06 02:15:54;;;;;;;32.78;28.85;;;;;;;;;;5034576;28;20040;-63
2022/12/06 02:18:33;;;;;;;32.60;29.10;;;;;;;;;;5034635;28;20362;-63
2022/12/06 02:21:19;;;;;;;35.03;29.92;;;;;;;;;;5034633;28;20018;-64
2022/12/06 02:23:48;;;;;;;37.92;30.48;;;;;;;;;;5013434;28;20116;-64
2022/12/06 02:26:26;;;;;;;37.55;30.92;;;;;;;;;;5034250;28;20026;-64
2022/12/06 02:29:01;;;;;;;35.65;31.83;;;;;;;;;;5034400;28;20028;-64
2022/12/06 02:31:30;;;;;;;43.10;32.40;;;;;;;;;;5034112;28;20169;-64
2022/12/06 02:34:10;;;;;;;35.90;30.23;;;;;;;;;;5033461;28;20025;-64
2022/12/06 02:36:39;;;;;;;35.78;31.45;;;;;;;;;;5034311;28;20036;-64
2022/12/06 02:39:09;;;;;;;36.33;30.63;;;;;;;;;;5032998;28;20397;-64
2022/12/06 02:41:39;;;;;;;34.00;30.13;;;;;;;;;;5034377;28;20030;-64
2022/12/06 02:44:14;;;;;;;36.85;31.15;;;;;;;;;;5032613;28;20029;-64
2022/12/06 02:46:42;;;;;;;36.10;30.35;;;;;;;;;;5034047;28;20057;-64
2022/12/06 02:49:10;;;;;;;37.33;30.42;;;;;;;;;;5034076;28;20013;-64
2022/12/06 02:51:36;;;;;;;37.17;32.00;;;;;;;;;;5032941;28;20036;-64
2022/12/06 02:54:05;;;;;;;40.88;31.10;;;;;;;;;;5033452;28;20018;-63
2022/12/06 02:56:32;;;;;;;40.08;31.00;;;;;;;;;;5032724;28;20041;-63
2022/12/06 02:58:58;;;;;;;47.72;32.03;;;;;;;;;;5034110;28;20061;-64
2022/12/06 03:01:26;;;;;;;43.95;31.75;;;;;;;;;;5032795;28;20030;-64
2022/12/06 03:03:57;;;;;;;36.05;30.88;;;;;;;;;;5033708;28;20084;-64
2022/12/06 03:06:42;;;;;;;47.70;33.90;;;;;;;;;;5033608;28;20026;-62
2022/12/06 03:09:27;;;;;;;44.45;31.25;;;;;;;;;;5033494;28;20049;-64
2022/12/06 03:12:01;;;;;;;42.05;31.77;;;;;;;;;;5033684;28;20030;-64
2022/12/06 03:14:32;;;;;;;38.10;30.45;;;;;;;;;;5033279;28;20284;-64
2022/12/06 03:17:11;;;;;;;35.20;30.50;;;;;;;;;;5033592;28;20056;-64
2022/12/06 03:19:39;;;;;;;36.47;30.95;;;;;;;;;;5033463;28;20032;-65
2022/12/06 03:22:12;;;;;;;43.28;29.73;;;;;;;;;;5033613;28;20549;-66
2022/12/06 03:24:39;;;;;;;32.45;28.92;;;;;;;;;;5033149;28;20041;-65
2022/12/06 03:27:07;;;;;;;33.28;29.75;;;;;;;;;;5033282;28;20029;-65
2022/12/06 03:29:37;;;;;;;40.13;29.33;;;;;;;;;;5032140;28;20529;-65
2022/12/06 03:32:04;;;;;;;33.75;30.00;;;;;;;;;;5033157;28;20022;-64
2022/12/06 03:34:33;;;;;;;40.60;31.73;;;;;;;;;;5032767;28;20030;-65
2022/12/06 03:36:59;;;;;;;;;;;;;;;;;;5033568;28;20045;-65
2022/12/06 03:39:35;;;;;;;36.90;30.40;;;;;;;;;;5031803;28;20288;-64
2022/12/06 03:42:01;;;;;;;41.53;30.70;;;;;;;;;;5033060;28;20043;-64
2022/12/06 03:44:28;;;;;;;37.55;31.38;;;;;;;;;;5031264;28;20099;-64
2022/12/06 03:46:59;;;;;;;35.22;30.63;;;;;;;;;;5032907;28;20057;-65
2022/12/06 03:49:29;;;;;;;51.50;32.15;;;;;;;;;;5033092;28;20041;-65
2022/12/06 03:51:55;;;;;;;35.35;31.05;;;;;;;;;;5032909;28;20458;-65
2022/12/06 03:54:21;;;;;;;39.47;31.77;;;;;;;;;;5031262;28;20120;-64
2022/12/06 03:56:47;;;;;;;35.55;30.90;;;;;;;;;;5032828;28;20108;-64
2022/12/06 03:59:13;;;;;;;37.38;31.27;;;;;;;;;;5032584;28;20061;-64
2022/12/06 04:01:39;;;;;;;42.38;32.13;;;;;;;;;;5031346;28;20037;-63
2022/12/06 04:04:05;;;;;;;43.10;31.25;;;;;;;;;;5032330;28;20025;-63
2022/12/06 04:06:31;;;;;;;44.85;32.88;;;;;;;;;;5031340;28;20025;-64
2022/12/06 04:09:51;;;;;;;38.20;30.95;;;;;;;;;;5032810;28;20366;-63
2022/12/06 04:11:43;;;;;;;38.80;31.42;;;;;;;;;;5032454;28;20087;-63
2022/12/06 04:14:09;;;;;;;45.20;31.50;;;;;;;;;;5030793;28;20315;-63
2022/12/06 04:19:20;;;;;;;45.10;32.05;;;;;;;;;;5032475;28;20137;-64
2022/12/06 04:24:30;;;;;;;50.88;33.22;;;;;;;;;;5032166;28;20037;-63
2022/12/06 04:40:41;;;;;;;39.17;32.33;;;;;;;;;;5031980;28;20172;-61
2022/12/06 04:45:53;;;;;;;39.75;32.20;;;;;;;;;;5032042;28;20072;-64
2022/12/06 04:48:19;;;;;;;36.65;31.65;;;;;;;;;;5031907;28;20052;-64
2022/12/06 04:50:51;;;;;;;38.40;31.73;;;;;;;;;;5031878;28;20070;-63
2022/12/06 04:53:17;;;;;;;42.60;32.90;;;;;;;;;;5030360;28;20048;-63
2022/12/06 04:55:47;;;;;;;45.40;34.20;;;;;;;;;;5031280;28;20021;-63
2022/12/06 04:58:13;;;;;;;38.05;32.60;;;;;;;;;;5030440;28;20024;-63
2022/12/06 05:00:42;;;;;;;43.30;33.00;;;;;;;;;;5031798;28;20028;-64
2022/12/06 05:03:09;;;;;;;41.88;32.00;;;;;;;;;;5031595;28;20405;-63
2022/12/06 05:05:35;;;;;;;42.70;32.38;;;;;;;;;;5030392;28;20045;-63
2022/12/06 05:08:01;;;;;;;41.45;31.77;;;;;;;;;;5031977;28;20025;-59
2022/12/06 05:10:27;;;;;;;38.60;32.15;;;;;;;;;;5030803;28;20017;-63
2022/12/06 05:12:53;;;;;;;39.50;32.20;;;;;;;;;;5032540;28;20029;-65
2022/12/06 05:15:19;;;;;;;41.13;33.25;;;;;;;;;;5031716;28;20037;-63
2022/12/06 05:17:45;;;;;;;44.83;35.17;;;;;;;;;;5031761;28;20025;-63
2022/12/06 05:20:13;;;;;;;46.70;34.28;;;;;;;;;;5031805;28;20494;-63
2022/12/06 05:22:39;;;;;;;41.60;34.38;;;;;;;;;;5032098;28;20139;-63
2022/12/06 05:25:05;;;;;;;41.53;32.03;;;;;;;;;;5031691;28;20033;-63
2022/12/06 05:27:31;;;;;;;43.95;33.38;;;;;;;;;;5031692;28;20041;-63
2022/12/06 05:29:57;;;;;;;41.60;33.35;;;;;;;;;;5031630;28;20090;-63
2022/12/06 05:32:23;;;;;;;42.75;34.42;;;;;;;;;;5031751;28;20033;-62
2022/12/06 05:34:49;;;;;;;46.10;33.40;;;;;;;;;;5049126;23;20025;-65
2022/12/06 05:37:15;;;;;;;39.30;33.67;;;;;;;;;;5028952;28;20041;-64
2022/12/06 05:39:41;;;;;;;40.05;31.63;;;;;;;;;;5029795;28;20022;-64
2022/12/06 05:42:07;;;;;;;41.67;32.60;;;;;;;;;;5045135;28;20452;-65
2022/12/06 05:44:33;;;;;;;42.22;32.10;;;;;;;;;;5044670;28;20099;-64
2022/12/06 05:46:59;;;;;;;39.15;31.52;;;;;;;;;;5029797;28;20469;-64
2022/12/06 05:49:26;;;;;;;38.38;31.45;;;;;;;;;;5028316;28;20018;-65
2022/12/06 05:51:52;;;;;;;41.63;33.50;;;;;;;;;;5028520;28;20021;-64
2022/12/06 05:54:18;;;;;;;45.13;34.92;;;;;;;;;;5028155;28;20558;-65
2022/12/06 05:56:44;;;;;;;50.13;38.40;;;;;;;;;;5029541;28;20028;-65
2022/12/06 05:59:10;;;;;;;38.50;33.67;;;;;;;;;;5028995;28;20028;-64
2022/12/06 06:01:36;;;;;;;41.38;35.20;;;;;;;;;;5028311;28;20025;-65
2022/12/06 06:04:02;;;;;;;46.42;36.47;;;;;;;;;;5028226;28;20018;-64
2022/12/06 06:06:28;;;;;;;39.60;34.10;;;;;;;;;;5030058;28;20069;-65
2022/12/06 06:08:54;;;;;;;43.67;35.40;;;;;;;;;;5033034;28;20018;-64
2022/12/06 06:11:20;;;;;;;39.60;32.50;;;;;;;;;;5033262;28;20032;-64
2022/12/06 06:13:46;;;;;;;41.63;32.90;;;;;;;;;;5032967;28;20156;-61
2022/12/06 06:16:12;;;;;;;39.15;32.10;;;;;;;;;;5031600;28;20120;-65
2022/12/06 06:18:38;;;;;;;44.05;33.70;;;;;;;;;;5033084;28;20163;-64
2022/12/06 06:21:04;;;;;;;38.42;32.33;;;;;;;;;;5032826;28;20114;-64
2022/12/06 06:23:30;;;;;;;41.83;33.83;;;;;;;;;;5030019;28;20486;-64
2022/12/06 06:25:56;;;;;;;41.25;34.22;;;;;;;;;;5032253;28;20041;-64
2022/12/06 06:28:22;;;;;;;39.53;33.60;;;;;;;;;;5032580;28;20024;-65
2022/12/06 06:30:48;;;;;;;43.80;32.83;;;;;;;;;;5031079;28;20025;-61
2022/12/06 06:33:14;;;;;;;39.83;32.67;;;;;;;;;;5032505;28;20022;-65
2022/12/06 06:35:41;;;;;;;37.17;31.88;;;;;;;;;;5032673;28;20053;-66
2022/12/06 06:38:07;;;;;;;38.60;31.60;;;;;;;;;;5031235;28;20180;-63
2022/12/06 06:40:34;;;;;;;39.45;33.80;;;;;;;;;;5032518;28;20033;-66
2022/12/06 06:43:16;;;;;;;37.42;31.40;;;;;;;;;;5032323;28;20032;-65
2022/12/06 06:45:52;;;;;;;35.50;30.48;;;;;;;;;;5031744;28;20044;-66
2022/12/06 06:48:18;;;;;;;36.70;30.45;;;;;;;;;;5032416;28;20064;-68
2022/12/06 06:50:44;;;;;;;37.28;31.00;;;;;;;;;;5032610;28;20022;-64
2022/12/06 06:53:10;;;;;;;36.40;32.22;;;;;;;;;;5035725;28;20033;-65
2022/12/06 06:55:36;;;;;;;40.60;32.22;;;;;;;;;;5032219;28;20045;-59
2022/12/06 06:58:03;;;;;;;37.75;31.80;;;;;;;;;;5040946;28;20029;-65
2022/12/06 07:00:29;;;;;;;37.08;30.67;;;;;;;;;;5038339;28;20456;-60
2022/12/06 07:02:55;;;;;;;34.80;31.00;;;;;;;;;;5032393;28;20083;-62
2022/12/06 07:05:21;;;;;;;38.33;31.98;;;;;;;;;;5030077;28;20029;-66
2022/12/06 07:07:48;;;;;;;37.13;31.60;;;;;;;;;;5031837;28;20431;-66
2022/12/06 07:10:14;;;;;;;35.25;30.38;;;;;;;;;;5031860;28;20482;-65
2022/12/06 07:12:40;;;;;;;34.90;30.85;;;;;;;;;;5031689;28;20021;-67
2022/12/06 07:15:06;;;;;;;35.53;29.42;;;;;;;;;;5031136;28;20101;-66
2022/12/06 07:17:32;;;;;;;33.65;29.60;;;;;;;;;;5031631;28;20030;-66
2022/12/06 07:19:58;;;;;;;37.17;30.67;;;;;;;;;;5030876;28;20026;-61
2022/12/06 07:22:24;;;;;;;38.38;31.02;;;;;;;;;;5031227;28;20408;-66
2022/12/06 07:24:50;;;;;;;38.55;30.58;;;;;;;;;;5030563;28;20033;-65
2022/12/06 07:27:16;;;;;;;33.65;30.05;;;;;;;;;;5031151;28;20393;-64
2022/12/06 07:29:42;;;;;;;35.40;30.80;;;;;;;;;;5031377;28;20116;-62
2022/12/06 07:32:08;;;;;;;31.52;28.13;;;;;;;;;;5031330;28;20024;-65
2022/12/06 07:34:34;;;;;;;39.28;30.73;;;;;;;;;;5030578;28;20033;-64
2022/12/06 07:37:00;;;;;;;34.38;29.33;;;;;;;;;;5031051;28;20175;-64
2022/12/06 07:39:26;;;;;;;32.30;28.48;;;;;;;;;;5031140;28;20041;-65
2022/12/06 07:45:00;;;;;;;33.47;29.80;;;;;;;;;;4969554;28;20031;-65
2022/12/06 07:47:26;;;;;;;32.72;29.30;;;;;;;;;;5020702;28;20561;-62
2022/12/06 07:49:52;;;;;;;33.63;29.52;;;;;;;;;;5031050;28;20025;-63
2022/12/06 07:52:19;;;;;;;36.83;30.15;;;;;;;;;;5030765;28;20025;-64
2022/12/06 07:54:45;;;;;;;40.20;30.42;;;;;;;;;;5030309;28;20044;-64
2022/12/06 07:57:11;;;;;;;32.35;28.67;;;;;;;;;;5036178;28;20060;-65
2022/12/06 07:59:37;;;;;;;32.40;28.90;;;;;;;;;;5038684;28;20036;-59
2022/12/06 08:02:03;;;;;;;33.03;28.95;;;;;;;;;;5044085;28;20025;-64
2022/12/06 08:04:29;;;;;;;33.83;29.92;;;;;;;;;;5044244;28;20055;-63
2022/12/06 08:06:56;;;;;;;34.10;30.40;;;;;;;;;;5044282;28;20047;-64
2022/12/06 08:09:23;;;;;;;34.22;30.17;;;;;;;;;;5042306;28;20025;-63
2022/12/06 08:11:49;;;;;;;34.75;30.63;;;;;;;;;;5042520;28;20091;-62
2022/12/06 08:14:15;;;;;;;37.50;30.17;;;;;;;;;;5042731;28;20029;-66
2022/12/06 08:16:41;;;;;;;34.45;30.83;;;;;;;;;;5042695;28;20041;-64
2022/12/06 08:19:07;;;;;;;33.40;29.67;;;;;;;;;;5039069;28;20044;-64
2022/12/06 08:21:33;;;;;;;31.75;28.55;;;;;;;;;;5037324;28;20089;-62
2022/12/06 08:24:00;;;;;;;32.70;29.33;;;;;;;;;;5038302;28;20029;-66
2022/12/06 08:26:26;;;;;;;31.33;28.10;;;;;;;;;;5035335;28;20033;-65
2022/12/06 08:28:52;;;;;;;30.48;27.27;;;;;;;;;;5030584;28;20022;-64
2022/12/06 08:31:20;;;;;;;32.35;28.88;;;;;;;;;;5029832;28;20028;-62
2022/12/06 08:33:46;;;;;;;30.98;27.67;;;;;;;;;;5030272;28;20033;-66
2022/12/06 08:36:14;;;;;;;32.03;28.58;;;;;;;;;;5030438;28;20041;-66
2022/12/06 08:38:40;;;;;;;31.13;27.90;;;;;;;;;;5030266;28;20048;-66
2022/12/06 08:41:54;;;;;;;33.10;29.80;;;;;;;;;;5030378;28;20068;-66
2022/12/06 08:43:53;;;;;;;31.20;27.05;;;;;;;;;;5029848;28;20512;-67
2022/12/06 08:46:19;;;;;;;31.00;27.80;;;;;;;;;;5030406;28;20032;-66
2022/12/06 08:48:45;;;;;;;32.38;28.98;;;;;;;;;;5029028;28;20022;-65
2022/12/06 08:51:11;;;;;;;29.92;26.75;;;;;;;;;;5031334;28;20500;-66
2022/12/06 08:53:38;;;;;;;30.95;27.63;;;;;;;;;;5030505;28;20026;-65
2022/12/06 08:56:05;;;;;;;31.67;28.25;;;;;;;;;;5029175;28;20031;-65
2022/12/06 08:58:31;;;;;;;31.85;28.55;;;;;;;;;;5029565;28;20484;-68
2022/12/06 09:00:57;;;;;;;29.77;26.65;;;;;;;;;;5030272;28;20036;-61
2022/12/06 09:03:23;;;;;;;30.50;26.38;;;;;;;;;;5030437;28;20024;-61
2022/12/06 09:05:49;;;;;;;30.88;27.58;;;;;;;;;;5029370;28;20108;-61
2022/12/06 09:08:15;;;;;;;31.10;25.92;;;;;;;;;;5030687;28;20021;-61
2022/12/06 09:10:43;;;;;;;27.63;24.63;;;;;;;;;;5030967;28;20022;-66
2022/12/06 09:13:09;;;;;;;30.38;24.75;;;;;;;;;;5030464;28;20014;-68
2022/12/06 09:15:35;;;;;;;29.25;24.42;;;;;;;;;;5029264;28;20041;-68
2022/12/06 09:18:01;;;;;;;29.42;25.08;;;;;;;;;;5029254;28;20029;-66
2022/12/06 09:20:27;;;;;;;38.90;27.42;;;;;;;;;;5029040;28;20402;-68
2022/12/06 09:22:53;;;;;;;27.60;24.60;;;;;;;;;;5029018;28;20030;-69
2022/12/06 09:25:20;;;;;;;27.08;23.25;;;;;;;;;;5028403;28;20036;-68
2022/12/06 09:27:46;;;;;;;26.80;23.42;;;;;;;;;;5028465;28;20025;-68
2022/12/06 09:30:12;;;;;;;30.33;24.67;;;;;;;;;;5028262;28;20045;-68
2022/12/06 09:32:38;;;;;;;27.17;24.10;;;;;;;;;;5029558;28;20086;-69
2022/12/06 09:35:04;;;;;;;27.65;24.42;;;;;;;;;;5027386;28;20568;-68
2022/12/06 09:37:31;;;;;;;31.20;24.77;;;;;;;;;;5029527;28;20030;-70
2022/12/06 09:40:00;;;;;;;29.55;25.15;;;;;;;;;;5030196;28;20038;-70
2022/12/06 09:42:35;;;;;;;28.15;24.90;;;;;;;;;;5032238;28;20040;-69
2022/12/06 09:45:10;;;;;;;27.50;24.02;;;;;;;;;;5033830;28;20033;-69
2022/12/06 09:47:56;;;;;;;29.42;23.83;;;;;;;;;;5033893;28;20029;-69
2022/12/06 09:50:22;;;;;;;26.13;23.13;;;;;;;;;;5026671;28;20030;-69
2022/12/06 09:53:07;;;;;;;29.20;24.20;;;;;;;;;;5033671;28;20024;-70
2022/12/06 09:55:33;;;;;;;25.88;22.23;;;;;;;;;;5031735;28;20022;-70
2022/12/06 09:58:02;;;;;;;27.50;24.50;;;;;;;;;;5033500;28;20113;-69
2022/12/06 10:00:32;;;;;;;26.33;23.17;;;;;;;;;;5033476;28;20036;-67
2022/12/06 10:03:09;;;;;;;25.67;22.35;;;;;;;;;;5033382;28;20091;-67
2022/12/06 10:05:35;;;;;;;31.13;22.92;;;;;;;;;;5032838;28;20493;-67
2022/12/06 10:08:20;;;;;;;27.13;22.75;;;;;;;;;;5032966;28;20033;-67
2022/12/06 10:10:58;;;;;;;27.23;24.33;;;;;;;;;;5033619;28;20029;-67
2022/12/06 10:13:33;;;;;;;25.15;22.48;;;;;;;;;;5033104;28;20017;-67
2022/12/06 10:16:08;;;;;;;24.55;21.80;;;;;;;;;;5033107;28;20026;-69
2022/12/06 10:18:43;;;;;;;25.65;22.88;;;;;;;;;;5032231;28;20018;-67
2022/12/06 10:21:09;;;;;;;28.02;21.75;;;;;;;;;;5030944;28;20061;-68
2022/12/06 10:23:50;;;;;;;25.52;22.83;;;;;;;;;;5030491;28;20809;-68
2022/12/06 10:26:18;;;;;;;25.23;21.23;;;;;;;;;;5033018;28;20030;-67
2022/12/06 10:28:44;;;;;;;24.13;21.55;;;;;;;;;;5032659;28;20496;-69
2022/12/06 10:31:45;;;;;;;24.75;21.77;;;;;;;;;;5032503;28;20028;-68
2022/12/06 10:34:22;;;;;;;25.48;22.80;;;;;;;;;;4963244;28;20102;-67
2022/12/06 10:37:03;;;;;;;25.17;22.35;;;;;;;;;;5024775;28;20546;-68
2022/12/06 10:39:41;;;;;;;24.98;22.15;;;;;;;;;;4678450;28;10000479;-67
2022/12/06 10:42:20;;;;;;;25.58;22.65;;;;;;;;;;5011688;28;20037;-66
2022/12/06 10:44:49;;;;;;;27.27;22.58;;;;;;;;;;5029037;28;20072;-67
2022/12/06 10:47:15;;;;;;;;;;;;;;;;;;5028754;28;20389;-67
2022/12/06 10:49:53;;;;;;;24.63;21.38;;;;;;;;;;5029119;28;19959;-68
2022/12/06 10:52:19;;;;;;;;;;;;;;;;;;5030739;28;20381;-69
2022/12/06 10:54:45;;;;;;;23.75;21.25;;;;;;;;;;5028383;28;20365;-68
2022/12/06 10:57:17;;;;;;;23.60;21.10;;;;;;;;;;5031531;28;20188;-68
2022/12/06 11:00:02;;;;;;;24.67;22.08;;;;;;;;;;5032647;28;20022;-68
2022/12/06 11:02:39;;;;;;;24.17;21.77;;;;;;;;;;5032047;28;20029;-65
2022/12/06 11:05:10;;;;;;;24.27;21.80;;;;;;;;;;5031580;28;20068;-69
2022/12/06 11:07:43;;;;;;;25.13;22.58;;;;;;;;;;5030406;28;20398;-68
2022/12/06 11:10:24;;;;;;;25.23;22.63;;;;;;;;;;5032322;28;20066;-68
2022/12/06 11:12:54;;;;;;;26.33;23.48;;;;;;;;;;5032306;28;20091;-68
2022/12/06 11:15:22;;;;;;;25.58;23.05;;;;;;;;;;5030745;28;20021;-68
2022/12/06 11:18:03;;;;;;;25.73;23.23;;;;;;;;;;5032242;28;20033;-68
2022/12/06 11:20:41;;;;;;;26.02;23.52;;;;;;;;;;5032104;28;20025;-67
2022/12/06 11:23:26;;;;;;;24.60;22.08;;;;;;;;;;5031571;28;20493;-67
2022/12/06 11:26:02;;;;;;;22.58;20.27;;;;;;;;;;5031664;28;20486;-69
2022/12/06 11:28:28;;;;;;;22.15;19.65;;;;;;;;;;5029629;28;20028;-68
2022/12/06 11:30:54;;;;;;;21.17;18.98;;;;;;;;;;5030481;28;20025;-67
2022/12/06 11:33:23;;;;;;;21.65;19.35;;;;;;;;;;5032175;28;20047;-68
2022/12/06 11:35:49;;;;;;;20.65;18.55;;;;;;;;;;5053970;23;20065;-68
2022/12/06 11:38:16;;;;;;;20.45;18.25;;;;;;;;;;5033536;28;20033;-66
2022/12/06 11:40:44;;;;;;;21.05;18.85;;;;;;;;;;5033404;28;20029;-67
2022/12/06 11:43:14;;;;;;;21.83;19.52;;;;;;;;;;5048632;28;20464;-66
2022/12/06 11:45:42;;;;;;;21.73;19.42;;;;;;;;;;5033278;28;20033;-65
2022/12/06 11:48:14;;;;;;;21.35;19.05;;;;;;;;;;5031864;28;20025;-66
2022/12/06 11:50:41;;;;;;;20.13;18.13;;;;;;;;;;5032987;28;20029;-66
2022/12/06 11:53:13;;;;;;;19.20;14.40;;;;;;;;;;5031223;28;20034;-65
2022/12/06 11:55:43;;;;;;;16.38;12.93;;;;;;;;;;5032588;28;20018;-66
2022/12/06 11:58:32;;;;;;;17.40;12.60;;;;;;;;;;5032926;28;20029;-64
2022/12/06 12:01:03;;;;;;;18.88;12.90;;;;;;;;;;5032925;28;20060;-66
2022/12/06 12:03:33;;;;;;;17.13;12.35;;;;;;;;;;5032546;28;20453;-66
2022/12/06 12:06:09;;;;;;;17.35;11.85;;;;;;;;;;5032913;28;20017;-65
2022/12/06 12:08:36;;;;;;;16.90;12.02;;;;;;;;;;5032692;28;20037;-66
2022/12/06 12:11:03;;;;;;;17.60;12.10;;;;;;;;;;5032633;28;20017;-66
2022/12/06 12:13:45;;;;;;;16.80;11.50;;;;;;;;;;5032332;28;20041;-66
2022/12/06 12:16:14;;;;;;;16.60;11.73;;;;;;;;;;5032235;28;20021;-68
2022/12/06 12:18:52;;;;;;;16.80;12.63;;;;;;;;;;5033135;28;20028;-65
2022/12/06 12:21:28;;;;;;;17.10;12.20;;;;;;;;;;5032641;28;20500;-65
2022/12/06 12:23:55;;;;;;;16.88;12.20;;;;;;;;;;5032250;28;20441;-65
2022/12/06 12:26:22;;;;;;;19.48;12.93;;;;;;;;;;5032554;28;20022;-66
2022/12/06 12:29:05;;;;;;;17.42;12.45;;;;;;;;;;5032638;28;20489;-69
2022/12/06 12:31:31;;;;;;;17.13;12.25;;;;;;;;;;5032806;28;20101;-66
2022/12/06 12:34:16;;;;;;;16.88;11.80;;;;;;;;;;5031484;28;20121;-64
2022/12/06 12:36:47;;;;;;;17.00;11.82;;;;;;;;;;5033748;28;20549;-66
2022/12/06 12:39:22;;;;;;;19.45;12.38;;;;;;;;;;5034217;28;20430;-66
2022/12/06 12:41:49;;;;;;;18.63;12.30;;;;;;;;;;5032977;28;20120;-65
2022/12/06 12:44:23;;;;;;;18.05;11.73;;;;;;;;;;5033045;28;20033;-66
2022/12/06 12:46:54;;;;;;;17.35;12.35;;;;;;;;;;5032851;28;20030;-66
2022/12/06 12:49:27;;;;;;;18.30;12.63;;;;;;;;;;5032034;28;20030;-66
2022/12/06 12:51:54;;;;;;;18.55;11.93;;;;;;;;;;4682202;28;10000181;-67
2022/12/06 12:54:33;;;;;;;17.73;11.75;;;;;;;;;;5028876;28;20029;-65
2022/12/06 12:57:00;;;;;;;18.48;11.20;;;;;;;;;;5029614;28;20078;-66
2022/12/06 12:59:27;;;;;;;17.33;10.77;;;;;;;;;;5031735;28;20049;-66
2022/12/06 13:02:12;;;;;;;18.13;10.32;;;;;;;;;;5030755;28;20025;-65
2022/12/06 13:04:40;;;;;;;18.27;10.38;;;;;;;;;;5030650;28;20034;-65
2022/12/06 13:07:09;;;;;;;17.55;11.20;;;;;;;;;;5031131;28;20026;-65
2022/12/06 13:09:44;;;;;;;16.90;9.68;;;;;;;;;;5031127;28;20017;-68
2022/12/06 13:12:13;;;;;;;16.30;9.75;;;;;;;;;;5029774;28;20446;-65
2022/12/06 13:14:44;;;;;;;15.73;9.57;;;;;;;;;;5030163;28;20033;-65
2022/12/06 13:17:12;;;;;;;16.40;9.20;;;;;;;;;;5031545;28;20449;-67
2022/12/06 13:19:40;;;;;;;15.45;8.95;;;;;;;;;;5035270;28;20026;-66
2022/12/06 13:22:07;;;;;;;15.45;8.75;;;;;;;;;;5035184;28;20029;-65
2022/12/06 13:24:35;;;;;;;15.45;8.65;;;;;;;;;;5033646;28;20033;-66
2022/12/06 13:27:03;;;;;;;15.88;9.15;;;;;;;;;;5033809;28;20474;-67
2022/12/06 13:29:40;;;;;;;16.55;9.98;;;;;;;;;;5033137;28;20025;-64
2022/12/06 13:32:11;;;;;;;15.18;9.27;;;;;;;;;;5033304;28;20477;-68
2022/12/06 13:34:58;;;;;;;15.15;9.52;;;;;;;;;;5031780;28;20485;-69
2022/12/06 13:37:33;;;;;;;15.35;10.10;;;;;;;;;;5033074;28;20052;-65
2022/12/06 13:39:59;;;;;;;15.60;9.98;;;;;;;;;;5032991;28;20033;-67
2022/12/06 13:42:34;;;;;;;16.52;10.18;;;;;;;;;;5032387;28;20022;-66
2022/12/06 13:45:01;;;;;;;16.55;10.73;;;;;;;;;;5031836;28;20390;-67
2022/12/06 13:47:27;;;;;;;15.40;9.98;;;;;;;;;;5033387;28;20070;-68
2022/12/06 13:49:53;;;;;;;15.70;9.93;;;;;;;;;;5033894;28;20112;-67
2022/12/06 13:52:38;;;;;;;16.48;10.30;;;;;;;;;;5034282;28;20434;-67
2022/12/06 13:55:23;;;;;;;16.45;10.30;;;;;;;;;;5015630;28;20154;-66
2022/12/06 13:57:50;;;;;;;18.33;10.65;;;;;;;;;;5015457;28;20452;-68
2022/12/06 14:00:28;;;;;;;15.18;9.38;;;;;;;;;;5019834;28;20022;-66
2022/12/06 14:03:01;;;;;;;15.75;9.95;;;;;;;;;;5035246;28;20029;-65
2022/12/06 14:05:46;;;;;;;17.58;10.35;;;;;;;;;;5034249;28;20030;-66
2022/12/06 14:08:13;;;;;;;18.35;10.63;;;;;;;;;;5035888;28;20028;-67
2022/12/06 14:10:39;;;;;;;18.00;10.43;;;;;;;;;;5034663;28;20025;-67
2022/12/06 14:13:05;;;;;;;16.42;10.48;;;;;;;;;;5035097;28;20026;-65
2022/12/06 14:15:31;;;;;;;18.45;10.23;;;;;;;;;;5035411;28;20036;-66
2022/12/06 14:17:57;;;;;;;17.65;10.40;;;;;;;;;;5034233;28;20397;-67
2022/12/06 14:20:26;;;;;;;18.05;10.95;;;;;;;;;;5035412;28;20497;-66
2022/12/06 14:22:52;;;;;;;;;;;;;;;;;;5035425;28;20030;-65
2022/12/06 14:25:18;;;;;;;17.88;11.30;;;;;;;;;;5034987;28;19905;-66
2022/12/06 14:27:49;;;;;;;19.63;10.80;;;;;;;;;;5033468;28;20025;-66
2022/12/06 14:30:22;;;;;;;18.58;10.75;;;;;;;;;;5035434;28;20018;-68
2022/12/06 14:32:56;;;;;;;17.75;10.15;;;;;;;;;;5035385;28;20029;-67
2022/12/06 14:35:27;;;;;;;19.40;11.02;;;;;;;;;;5036474;28;20037;-67
2022/12/06 14:37:54;;;;;;;18.35;10.75;;;;;;;;;;5035279;28;20029;-67
2022/12/06 14:40:22;;;;;;;20.15;10.88;;;;;;;;;;5035628;28;20036;-67
2022/12/06 14:43:00;;;;;;;19.92;11.55;;;;;;;;;;5035960;28;20079;-67
2022/12/06 14:45:26;;;;;;;17.30;9.95;;;;;;;;;;5034952;28;20029;-68
2022/12/06 14:47:52;;;;;;;17.70;10.48;;;;;;;;;;5033371;28;20049;-67
2022/12/06 14:50:27;;;;;;;19.38;10.90;;;;;;;;;;5034792;28;20025;-67
2022/12/06 14:53:00;;;;;;;19.05;10.60;;;;;;;;;;5034787;28;20044;-65
2022/12/06 14:55:26;;;;;;;20.05;10.48;;;;;;;;;;5032956;28;20129;-67